createdAt,value
2019-06-15T00:00:31.863Z,96798.84
2019-06-15T00:03:37.984Z,96781.21
2019-06-15T00:06:44.064Z,96809.40
2019-06-15T00:09:50.414Z,96833.45
2019-06-15T00:12:56.742Z,96785.27
2019-06-15T00:16:04.344Z,96744.92
2019-06-15T00:19:10.816Z,96726.09
2019-06-15T00:22:16.949Z,96720.92
2019-06-15T00:25:23.056Z,96730.55
2019-06-15T00:28:29.465Z,96725.63
2019-06-15T00:31:37.196Z,96715.47
2019-06-15T00:34:43.633Z,96699.09
2019-06-15T00:37:49.701Z,96693.55
2019-06-15T00:40:55.881Z,96708.83
2019-06-15T00:44:02.525Z,96696.66
2019-06-15T00:47:08.745Z,96673.80
2019-06-15T00:50:14.965Z,96672.41
2019-06-15T00:53:24.027Z,96678.47
2019-06-15T00:56:30.115Z,96688.87
2019-06-15T00:59:36.288Z,96684.94
2019-06-15T01:02:42.480Z,96687.95
2019-06-15T01:05:48.691Z,96684.27
2019-06-15T01:08:54.774Z,96679.89
2019-06-15T01:12:00.907Z,96693.17
2019-06-15T01:15:08.409Z,96683.78
2019-06-15T01:18:14.523Z,96686.41
2019-06-15T01:21:20.745Z,96680.22
2019-06-15T01:24:26.931Z,96670.52
2019-06-15T01:27:33.021Z,96663.18
2019-06-15T01:30:39.174Z,96665.09
2019-06-15T01:33:45.316Z,96663.28
2019-06-15T01:36:52.744Z,96647.37
2019-06-15T01:39:58.865Z,96640.84
2019-06-15T01:43:04.970Z,96630.27
2019-06-15T01:46:12.194Z,96630.80
2019-06-15T01:49:18.583Z,96628.36
2019-06-15T01:52:24.671Z,96625.37
2019-06-15T01:55:31.491Z,96634.13
2019-06-15T01:58:38.502Z,96630.59
2019-06-15T02:01:44.851Z,96636.80
2019-06-15T02:04:50.988Z,96622.96
2019-06-15T02:07:57.325Z,96622.52
2019-06-15T02:11:03.559Z,96614.13
2019-06-15T02:14:10.641Z,96613.72
2019-06-15T02:17:17.974Z,96617.64
2019-06-15T02:20:24.585Z,96621.69
2019-06-15T02:23:30.643Z,96618.97
2019-06-15T02:26:37.387Z,96609.03
2019-06-15T02:29:43.513Z,96596.13
2019-06-15T02:32:49.638Z,96588.69
2019-06-15T02:35:56.026Z,96585.84
2019-06-15T02:39:02.218Z,96590.16
2019-06-15T02:42:09.694Z,96593.69
2019-06-15T02:45:16.251Z,96599.39
2019-06-15T02:48:22.664Z,96590.87
2019-06-15T02:51:29.140Z,96590.44
2019-06-15T02:54:35.535Z,96584.09
2019-06-15T02:57:42.116Z,96594.42
2019-06-15T03:01:00.174Z,96602.91
2019-06-15T03:04:06.735Z,96611.25
2019-06-15T03:07:14.144Z,96602.03
2019-06-15T03:10:21.562Z,96596.34
2019-06-15T03:13:28.807Z,96593.90
2019-06-15T03:16:35.468Z,96593.78
2019-06-15T03:19:41.841Z,96586.89
2019-06-15T03:22:48.216Z,96585.51
2019-06-15T03:26:05.084Z,96581.41
2019-06-15T03:29:03.856Z,96583.32
2019-06-15T03:32:10.227Z,96579.36
2019-06-15T03:35:17.566Z,96590.37
2019-06-15T03:38:23.915Z,96594.25
2019-06-15T03:41:30.301Z,96590.98
2019-06-15T03:44:37.081Z,96588.42
2019-06-15T03:47:43.920Z,96586.45
2019-06-15T03:50:50.726Z,96595.48
2019-06-15T03:53:58.708Z,96602.98
2019-06-15T03:57:05.901Z,96605.92
2019-06-15T04:00:47.446Z,96598.98
2019-06-15T04:03:54.014Z,96602.86
2019-06-15T04:07:03.230Z,96602.30
2019-06-15T04:10:09.710Z,96600.30
2019-06-15T04:13:16.130Z,96604.41
2019-06-15T04:16:22.495Z,96603.14
2019-06-15T04:19:28.753Z,96595.27
2019-06-15T04:22:34.904Z,96582.65
2019-06-15T04:25:44.095Z,96579.27
2019-06-15T04:28:49.083Z,96582.51
2019-06-15T04:31:55.577Z,96587.55
2019-06-15T04:35:01.834Z,96592.63
2019-06-15T04:38:08.230Z,96589.05
2019-06-15T04:41:14.790Z,96584.77
2019-06-15T04:44:21.181Z,96592.98
2019-06-15T04:47:27.650Z,96586.25
2019-06-15T04:50:34.150Z,96587.41
2019-06-15T04:53:40.524Z,96582.47
2019-06-15T04:56:50.893Z,96581.42
2019-06-15T04:59:54.831Z,96586.23
2019-06-15T05:03:01.376Z,96589.89
2019-06-15T05:06:07.876Z,96597.53
2019-06-15T05:09:13.999Z,96596.61
2019-06-15T05:12:20.120Z,96606.69
2019-06-15T05:15:26.319Z,96610.48
2019-06-15T05:18:32.590Z,96607.89
2019-06-15T05:21:38.818Z,96601.50
2019-06-15T05:24:44.943Z,96596.45
2019-06-15T05:27:51.142Z,96606.21
2019-06-15T05:30:57.221Z,96606.99
2019-06-15T05:34:05.881Z,96611.89
2019-06-15T05:37:12.236Z,96617.55
2019-06-15T05:40:18.655Z,96624.64
2019-06-15T05:43:24.833Z,96636.64
2019-06-15T05:46:31.050Z,96638.06
2019-06-15T05:49:37.139Z,96634.75
2019-06-15T05:52:43.382Z,96647.83
2019-06-15T05:55:49.739Z,96638.77
2019-06-15T05:58:56.026Z,96632.45
2019-06-15T06:02:02.621Z,96634.64
2019-06-15T06:05:09.696Z,96642.15
2019-06-15T06:08:15.792Z,96643.83
2019-06-15T06:11:21.942Z,96653.22
2019-06-15T06:14:28.146Z,96646.00
2019-06-15T06:17:34.258Z,96642.23
2019-06-15T06:20:40.378Z,96645.72
2019-06-15T06:23:46.649Z,96641.27
2019-06-15T06:26:53.078Z,96643.06
2019-06-15T06:30:02.541Z,96649.64
2019-06-15T06:33:08.961Z,96649.94
2019-06-15T06:36:15.075Z,96653.35
2019-06-15T06:39:21.215Z,96649.77
2019-06-15T06:42:27.450Z,96651.95
2019-06-15T06:45:33.623Z,96655.42
2019-06-15T06:48:39.821Z,96665.80
2019-06-15T06:51:45.927Z,96668.25
2019-06-15T06:54:52.060Z,96679.91
2019-06-15T06:57:58.526Z,96688.77
2019-06-15T07:01:06.011Z,96697.61
2019-06-15T07:04:12.205Z,96691.95
2019-06-15T07:07:18.513Z,96697.56
2019-06-15T07:10:24.674Z,96700.83
2019-06-15T07:13:30.910Z,96709.18
2019-06-15T07:16:37.022Z,96717.05
2019-06-15T07:19:43.260Z,96711.09
2019-06-15T07:22:49.334Z,96721.23
2019-06-15T07:25:55.541Z,96721.30
2019-06-15T07:29:01.788Z,96732.02
2019-06-15T07:32:07.941Z,96729.65
2019-06-15T07:35:14.960Z,96733.61
2019-06-15T07:38:21.072Z,96744.94
2019-06-15T07:41:27.160Z,96743.96
2019-06-15T07:44:35.472Z,96739.50
2019-06-15T07:47:44.564Z,96747.36
2019-06-15T07:50:51.576Z,96745.84
2019-06-15T07:53:57.739Z,96757.58
2019-06-15T07:57:04.065Z,96758.56
2019-06-15T08:00:12.507Z,96760.23
2019-06-15T08:03:18.799Z,96764.91
2019-06-15T08:06:25.002Z,96767.95
2019-06-15T08:09:31.195Z,96761.66
2019-06-15T08:12:37.538Z,96758.80
2019-06-15T08:15:43.906Z,96758.38
2019-06-15T08:18:51.164Z,96755.34
2019-06-15T08:21:57.239Z,96753.33
2019-06-15T08:25:03.751Z,96762.70
2019-06-15T08:28:09.941Z,96765.05
2019-06-15T08:31:18.778Z,96762.06
2019-06-15T08:34:24.876Z,96769.42
2019-06-15T08:37:31.016Z,96776.08
2019-06-15T08:40:37.207Z,96771.45
2019-06-15T08:43:43.292Z,96777.08
2019-06-15T08:46:49.376Z,96772.20
2019-06-15T08:49:55.657Z,96767.81
2019-06-15T08:53:02.952Z,96774.27
2019-06-15T08:56:09.261Z,96782.61
2019-06-15T08:59:15.605Z,96775.89
2019-06-15T09:02:22.562Z,96781.12
2019-06-15T09:05:30.402Z,96778.17
2019-06-15T09:08:36.905Z,96786.06
2019-06-15T09:11:43.014Z,96794.86
2019-06-15T09:14:49.170Z,96798.82
2019-06-15T09:17:55.274Z,96800.33
2019-06-15T09:21:03.177Z,96804.56
2019-06-15T09:24:09.287Z,96806.73
2019-06-15T09:27:15.651Z,96801.36
2019-06-15T09:30:21.892Z,96796.56
2019-06-15T09:33:28.055Z,96792.18
2019-06-15T09:36:34.212Z,96795.59
2019-06-15T09:39:40.577Z,96800.22
2019-06-15T09:42:47.093Z,96798.00
2019-06-15T09:45:53.663Z,96799.91
2019-06-15T09:48:59.903Z,96809.20
2019-06-15T09:52:07.658Z,96804.12
2019-06-15T09:55:14.124Z,96811.73
2019-06-15T09:58:20.272Z,96824.78
2019-06-15T10:01:26.489Z,96827.69
2019-06-15T10:04:32.967Z,96828.40
2019-06-15T10:07:39.266Z,96831.42
2019-06-15T10:10:45.498Z,96831.76
2019-06-15T10:13:51.609Z,96838.42
2019-06-15T10:16:57.688Z,96837.44
2019-06-15T10:20:07.254Z,96841.93
2019-06-15T10:23:13.419Z,96845.22
2019-06-15T10:26:19.843Z,96846.64
2019-06-15T10:29:38.597Z,96850.54
2019-06-15T10:32:34.967Z,96855.62
2019-06-15T10:35:41.041Z,96853.22
2019-06-15T10:38:47.131Z,96851.25
2019-06-15T10:41:53.228Z,96854.43
2019-06-15T10:44:59.593Z,96855.28
2019-06-15T10:48:05.878Z,96853.11
2019-06-15T10:51:12.056Z,96861.81
2019-06-15T10:54:18.229Z,96867.13
2019-06-15T10:57:25.358Z,96875.95
2019-06-15T11:00:31.692Z,96880.59
2019-06-15T11:03:38.369Z,96880.28
2019-06-15T11:06:45.843Z,96880.52
2019-06-15T11:09:52.177Z,96893.00
2019-06-15T11:12:59.457Z,96887.64
2019-06-15T11:16:05.899Z,96893.88
2019-06-15T11:19:12.192Z,96906.22
2019-06-15T11:22:18.306Z,96909.13
2019-06-15T11:25:24.568Z,96911.44
2019-06-15T11:28:30.688Z,96917.03
2019-06-15T11:31:36.975Z,96913.67
2019-06-15T11:34:43.175Z,96916.96
2019-06-15T11:37:49.263Z,96922.50
2019-06-15T11:40:55.428Z,96928.39
2019-06-15T11:44:01.495Z,96933.79
2019-06-15T11:47:07.812Z,96934.85
2019-06-15T11:50:14.307Z,96941.27
2019-06-15T11:53:20.501Z,96941.92
2019-06-15T11:56:26.670Z,96942.20
2019-06-15T11:59:33.075Z,96953.05
2019-06-15T12:02:39.254Z,96951.23
2019-06-15T12:05:45.638Z,96954.23
2019-06-15T12:08:52.166Z,96950.73
2019-06-15T12:11:58.511Z,96948.96
2019-06-15T12:15:05.940Z,96946.98
2019-06-15T12:18:12.120Z,96948.73
2019-06-15T12:21:19.369Z,96950.70
2019-06-15T12:24:26.440Z,96956.09
2019-06-15T12:27:32.562Z,96960.22
2019-06-15T12:30:46.802Z,96959.19
2019-06-15T12:33:47.931Z,96967.14
2019-06-15T12:36:54.087Z,96966.03
2019-06-15T12:40:00.655Z,96979.63
2019-06-15T12:43:07.032Z,96986.21
2019-06-15T12:46:14.386Z,96994.16
2019-06-15T12:49:20.681Z,96989.17
2019-06-15T12:52:26.968Z,96993.38
2019-06-15T12:55:33.245Z,96991.22
2019-06-15T12:58:42.355Z,96993.03
2019-06-15T13:01:48.648Z,96995.17
2019-06-15T13:04:55.059Z,96992.61
2019-06-15T13:08:01.344Z,97001.59
2019-06-15T13:11:09.406Z,96993.33
2019-06-15T13:14:15.534Z,96998.34
2019-06-15T13:17:21.635Z,96993.97
2019-06-15T13:20:29.822Z,97000.05
2019-06-15T13:23:36.030Z,96995.59
2019-06-15T13:26:42.262Z,96995.69
2019-06-15T13:29:48.364Z,97004.75
2019-06-15T13:32:54.580Z,97000.91
2019-06-15T13:36:00.727Z,97002.17
2019-06-15T13:42:16.325Z,97005.43
2019-06-15T13:45:22.518Z,97010.39
2019-06-15T13:48:28.761Z,97015.95
2019-06-15T13:51:35.006Z,97009.36
2019-06-15T13:54:41.160Z,97019.33
2019-06-15T13:57:47.359Z,97026.58
2019-06-15T14:00:54.839Z,97032.41
2019-06-15T14:04:00.969Z,97033.63
2019-06-15T14:07:07.211Z,97029.67
2019-06-15T14:10:15.554Z,97022.94
2019-06-15T14:13:22.219Z,97026.75
2019-06-15T14:16:28.696Z,97032.69
2019-06-15T14:19:35.003Z,97025.28
2019-06-15T14:22:41.087Z,97025.72
2019-06-15T14:25:47.337Z,97025.61
2019-06-15T14:28:56.224Z,97032.00
2019-06-15T14:32:03.064Z,97023.31
2019-06-15T14:35:09.726Z,97024.61
2019-06-15T14:38:15.860Z,97023.06
2019-06-15T14:41:21.987Z,97010.74
2019-06-15T14:44:28.217Z,97022.20
2019-06-15T14:47:34.433Z,97018.95
2019-06-15T14:50:40.577Z,97020.97
2019-06-15T14:53:55.560Z,97015.06
2019-06-15T14:56:56.767Z,97019.84
2019-06-15T15:00:05.855Z,97021.94
2019-06-15T15:03:10.922Z,97023.61
2019-06-15T15:06:17.343Z,97027.38
2019-06-15T15:09:23.598Z,97020.77
2019-06-15T15:12:33.248Z,97015.95
2019-06-15T15:15:39.829Z,97020.98
2019-06-15T15:18:46.448Z,97016.95
2019-06-15T15:21:52.974Z,97020.06
2019-06-15T15:25:00.799Z,97017.43
2019-06-15T15:28:07.478Z,97008.48
2019-06-15T15:31:16.899Z,97020.59
2019-06-15T15:34:23.236Z,97011.69
2019-06-15T15:37:31.036Z,97004.49
2019-06-15T15:40:37.225Z,97005.11
2019-06-15T15:43:46.103Z,97001.34
2019-06-15T15:46:51.282Z,96997.59
2019-06-15T15:49:59.161Z,96992.38
2019-06-15T15:53:06.269Z,96995.66
2019-06-15T15:56:12.383Z,96995.80
2019-06-15T15:59:18.657Z,96999.28
2019-06-15T16:02:41.703Z,96996.30
2019-06-15T16:05:37.187Z,97005.86
2019-06-15T16:08:46.698Z,97005.21
2019-06-15T16:11:51.596Z,97011.62
2019-06-15T16:14:57.693Z,97014.07
2019-06-15T16:18:06.567Z,97017.07
2019-06-15T16:21:12.089Z,97015.39
2019-06-15T16:24:19.299Z,97024.11
2019-06-15T16:27:26.566Z,97019.03
2019-06-15T16:31:00.349Z,97024.92
2019-06-15T16:33:46.438Z,97019.66
2019-06-15T16:36:52.063Z,97023.34
2019-06-15T16:39:58.168Z,97024.77
2019-06-15T16:43:06.910Z,97027.23
2019-06-15T16:46:12.377Z,97026.58
2019-06-15T16:49:20.759Z,97022.72
2019-06-15T16:52:27.026Z,97031.81
2019-06-15T16:55:33.387Z,97037.42
2019-06-15T16:58:39.651Z,97036.76
2019-06-15T17:01:45.896Z,97033.72
2019-06-15T17:04:51.999Z,97031.58
2019-06-15T17:07:58.205Z,97042.92
2019-06-15T17:11:06.724Z,97042.69
2019-06-15T17:14:13.176Z,97053.04
2019-06-15T17:17:19.314Z,97050.05
2019-06-15T17:20:31.056Z,97051.91
2019-06-15T17:23:37.227Z,97059.95
2019-06-15T17:26:43.382Z,97053.67
2019-06-15T17:29:49.474Z,97049.02
2019-06-15T17:32:56.698Z,97048.98
2019-06-15T17:36:03.549Z,97053.75
2019-06-15T17:39:09.936Z,97056.37
2019-06-15T17:42:16.476Z,97063.69
2019-06-15T17:45:22.923Z,97064.15
2019-06-15T17:48:29.067Z,97068.85
2019-06-15T17:51:36.793Z,97064.72
2019-06-15T17:54:46.488Z,97072.92
2019-06-15T17:57:52.083Z,97069.72
2019-06-15T18:00:58.159Z,97065.39
2019-06-15T18:04:07.541Z,97062.70
2019-06-15T18:07:12.595Z,97068.34
2019-06-15T18:10:20.148Z,97073.34
2019-06-15T18:13:26.387Z,97073.87
2019-06-15T18:16:32.916Z,97065.66
2019-06-15T18:19:38.986Z,97077.73
2019-06-15T18:22:46.904Z,97075.23
2019-06-15T18:25:53.177Z,97073.67
2019-06-15T18:28:59.367Z,97076.27
2019-06-15T18:32:06.461Z,97074.52
2019-06-15T18:35:12.804Z,97073.47
2019-06-15T18:38:19.065Z,97078.02
2019-06-15T18:41:27.632Z,97086.87
2019-06-15T18:44:33.704Z,97099.22
2019-06-15T18:47:40.948Z,97101.25
2019-06-15T18:50:47.049Z,97092.88
2019-06-15T18:53:53.173Z,97103.30
2019-06-15T18:56:59.280Z,97114.84
2019-06-15T19:00:07.309Z,97116.66
2019-06-15T19:03:16.521Z,97120.84
2019-06-15T19:06:22.698Z,97129.85
2019-06-15T19:09:28.800Z,97129.50
2019-06-15T19:12:35.211Z,97129.63
2019-06-15T19:15:41.302Z,97130.77
2019-06-15T19:18:47.440Z,97133.64
2019-06-15T19:21:53.546Z,97143.17
2019-06-15T19:25:00.308Z,97151.44
2019-06-15T19:28:06.539Z,97148.56
2019-06-15T19:31:12.733Z,97148.07
2019-06-15T19:34:19.476Z,97145.27
2019-06-15T19:37:26.151Z,97157.91
2019-06-15T19:40:33.635Z,97159.72
2019-06-15T19:43:40.385Z,97163.19
2019-06-15T19:46:47.649Z,97166.58
2019-06-15T19:49:56.853Z,97175.47
2019-06-15T19:53:02.481Z,97184.03
2019-06-15T19:56:08.862Z,97196.65
2019-06-15T19:59:17.108Z,97196.77
2019-06-15T20:02:23.608Z,97194.98
2019-06-15T20:05:29.992Z,97187.74
2019-06-15T20:08:36.498Z,97185.86
2019-06-15T20:11:42.643Z,97189.63
2019-06-15T20:15:13.101Z,97192.92
2019-06-15T20:18:19.175Z,97198.93
2019-06-15T20:21:25.607Z,97198.47
2019-06-15T20:24:32.176Z,97192.58
2019-06-15T20:27:39.247Z,97192.83
2019-06-15T20:30:46.215Z,97195.21
2019-06-15T20:33:52.876Z,97197.23
2019-06-15T20:36:59.452Z,97200.53
2019-06-15T20:40:07.231Z,97191.20
2019-06-15T20:43:17.077Z,97197.20
2019-06-15T20:46:26.297Z,97206.45
2019-06-15T20:49:31.829Z,97220.86
2019-06-15T20:52:38.201Z,97222.00
2019-06-15T20:55:46.571Z,97228.09
2019-06-15T20:58:52.740Z,97234.58
2019-06-15T21:01:59.267Z,97237.81
2019-06-15T21:05:09.725Z,97250.35
2019-06-15T21:08:16.372Z,97257.39
2019-06-15T21:11:26.380Z,97260.45
2019-06-15T21:14:33.101Z,97271.05
2019-06-15T21:17:39.480Z,97268.80
2019-06-15T21:20:47.077Z,97273.02
2019-06-15T21:23:53.804Z,97278.86
2019-06-15T21:27:00.330Z,97288.83
2019-06-15T21:30:08.992Z,97289.27
2019-06-15T21:33:16.467Z,97295.78
2019-06-15T21:36:22.947Z,97304.78
2019-06-15T21:39:30.401Z,97308.36
2019-06-15T21:42:36.944Z,97305.16
2019-06-15T21:45:46.107Z,97306.11
2019-06-15T21:48:51.734Z,97319.36
2019-06-15T21:51:58.085Z,97319.27
2019-06-15T21:55:06.989Z,97320.47
2019-06-15T21:58:13.467Z,97312.85
2019-06-15T22:01:37.462Z,97309.83
2019-06-15T22:04:46.024Z,97307.30
2019-06-15T22:07:51.737Z,97315.43
2019-06-15T22:10:58.109Z,97330.41
2019-06-15T22:14:06.333Z,97339.02
2019-06-15T22:17:12.980Z,97344.96
2019-06-15T22:20:19.484Z,97337.97
2019-06-15T22:23:26.852Z,97340.22
2019-06-15T22:26:33.392Z,97348.02
2019-06-15T22:29:39.853Z,97341.11
2019-06-15T22:32:47.313Z,97344.03
2019-06-15T22:35:56.460Z,97346.05
2019-06-15T22:39:02.627Z,97341.95
2019-06-15T22:42:10.635Z,97347.58
2019-06-15T22:45:18.122Z,97351.73
2019-06-15T22:48:27.029Z,97350.20
2019-06-15T22:51:32.663Z,97345.00
2019-06-15T22:54:39.009Z,97345.66
2019-06-15T22:57:46.105Z,97361.05
2019-06-15T23:00:52.669Z,97371.16
2019-06-15T23:03:59.168Z,97367.73
2019-06-15T23:07:06.917Z,97372.31
2019-06-15T23:10:16.505Z,97373.37
2019-06-15T23:13:22.913Z,97369.81
2019-06-15T23:16:29.316Z,97353.93
2019-06-15T23:19:35.695Z,97354.00
2019-06-15T23:22:42.321Z,97366.65
2019-06-15T23:25:51.177Z,97369.52
2019-06-15T23:28:57.642Z,97367.30
2019-06-15T23:32:06.163Z,97351.23
2019-06-15T23:35:13.084Z,97356.92
2019-06-15T23:38:19.636Z,97360.24
2019-06-15T23:41:27.299Z,97367.23
2019-06-15T23:44:36.129Z,97376.99
2019-06-15T23:47:42.896Z,97377.13
2019-06-15T23:50:49.364Z,97381.95
2019-06-15T23:53:57.124Z,97372.24
2019-06-15T23:57:06.261Z,97374.89
